sensor_id;sensor_type;location;lat;lon;timestamp;pressure;altitude;pressure_sealevel;temperature;humidity
40730;BME280;26418;50.070;8.436;2023-01-15T00:01:29;98454.31;;;8.87;100.00
40730;BME280;26418;50.070;8.436;2023-01-15T00:03:57;98451.50;;;8.83;100.00
40730;BME280;26418;50.070;8.436;2023-01-15T00:06:24;98448.03;;;8.83;100.00
40730;BME280;26418;50.070;8.436;2023-01-15T00:08:51;98447.53;;;8.80;100.00
40730;BME280;26418;50.070;8.436;2023-01-15T00:11:17;98442.78;;;8.77;100.00
40730;BME280;26418;50.070;8.436;2023-01-15T00:13:43;98437.09;;;8.79;100.00
40730;BME280;26418;50.070;8.436;2023-01-15T00:16:12;98440.56;;;8.79;100.00
40730;BME280;26418;50.070;8.436;2023-01-15T00:18:38;98440.09;;;8.77;100.00
40730;BME280;26418;50.070;8.436;2023-01-15T00:21:06;98426.19;;;8.75;100.00
40730;BME280;26418;50.070;8.436;2023-01-15T00:23:32;98428.06;;;8.75;100.00
40730;BME280;26418;50.070;8.436;2023-01-15T00:26:18;98433.16;;;8.76;100.00
40730;BME280;26418;50.070;8.436;2023-01-15T00:29:03;98430.47;;;8.76;100.00
40730;BME280;26418;50.070;8.436;2023-01-15T00:31:29;98431.56;;;8.75;100.00
40730;BME280;26418;50.070;8.436;2023-01-15T00:33:56;98421.09;;;8.74;100.00
40730;BME280;26418;50.070;8.436;2023-01-15T00:36:22;98425.84;;;8.77;100.00
40730;BME280;26418;50.070;8.436;2023-01-15T00:38:47;98417.13;;;8.80;100.00
40730;BME280;26418;50.070;8.436;2023-01-15T00:41:13;98414.88;;;8.82;100.00
40730;BME280;26418;50.070;8.436;2023-01-15T00:43:39;98412.97;;;8.83;100.00
40730;BME280;26418;50.070;8.436;2023-01-15T00:46:04;98420.88;;;8.88;100.00
40730;BME280;26418;50.070;8.436;2023-01-15T00:48:30;98421.34;;;8.90;100.00
40730;BME280;26418;50.070;8.436;2023-01-15T00:50:56;98422.59;;;8.92;100.00
40730;BME280;26418;50.070;8.436;2023-01-15T00:53:22;98426.53;;;8.95;100.00
40730;BME280;26418;50.070;8.436;2023-01-15T00:55:48;98437.94;;;9.01;100.00
40730;BME280;26418;50.070;8.436;2023-01-15T00:58:13;98436.47;;;9.03;100.00
40730;BME280;26418;50.070;8.436;2023-01-15T01:00:39;98434.25;;;9.05;100.00
40730;BME280;26418;50.070;8.436;2023-01-15T01:03:04;98444.69;;;9.07;100.00
40730;BME280;26418;50.070;8.436;2023-01-15T01:05:30;98436.47;;;9.03;100.00
40730;BME280;26418;50.070;8.436;2023-01-15T01:07:56;98470.56;;;9.08;100.00
40730;BME280;26418;50.070;8.436;2023-01-15T01:10:24;98459.63;;;9.04;100.00
40730;BME280;26418;50.070;8.436;2023-01-15T01:12:50;98456.84;;;8.92;100.00
40730;BME280;26418;50.070;8.436;2023-01-15T01:15:20;98462.13;;;8.79;100.00
40730;BME280;26418;50.070;8.436;2023-01-15T01:17:47;98461.09;;;8.63;100.00
40730;BME280;26418;50.070;8.436;2023-01-15T01:20:14;98460.19;;;8.59;100.00
40730;BME280;26418;50.070;8.436;2023-01-15T01:22:40;98465.28;;;8.52;100.00
40730;BME280;26418;50.070;8.436;2023-01-15T01:25:06;98459.25;;;8.46;100.00
40730;BME280;26418;50.070;8.436;2023-01-15T01:27:32;98462.41;;;8.39;100.00
40730;BME280;26418;50.070;8.436;2023-01-15T01:29:58;98459.44;;;8.32;100.00
40730;BME280;26418;50.070;8.436;2023-01-15T01:32:23;98453.09;;;8.28;100.00
40730;BME280;26418;50.070;8.436;2023-01-15T01:34:49;98458.03;;;8.26;100.00
40730;BME280;26418;50.070;8.436;2023-01-15T01:37:14;98462.94;;;8.24;100.00
40730;BME280;26418;50.070;8.436;2023-01-15T01:39:40;98454.06;;;8.23;100.00
40730;BME280;26418;50.070;8.436;2023-01-15T01:42:23;98456.75;;;8.23;100.00
40730;BME280;26418;50.070;8.436;2023-01-15T01:47:20;98467.06;;;8.21;100.00
40730;BME280;26418;50.070;8.436;2023-01-15T01:49:51;98456.16;;;8.17;100.00
40730;BME280;26418;50.070;8.436;2023-01-15T01:52:22;98472.31;;;8.17;100.00
40730;BME280;26418;50.070;8.436;2023-01-15T01:54:49;98471.03;;;8.15;100.00
40730;BME280;26418;50.070;8.436;2023-01-15T01:57:18;98481.66;;;8.11;100.00
40730;BME280;26418;50.070;8.436;2023-01-15T01:59:46;98490.53;;;8.12;100.00
40730;BME280;26418;50.070;8.436;2023-01-15T02:02:13;98488.63;;;8.12;100.00
40730;BME280;26418;50.070;8.436;2023-01-15T02:04:40;98492.25;;;8.08;100.00
40730;BME280;26418;50.070;8.436;2023-01-15T02:07:06;98492.09;;;8.04;100.00
40730;BME280;26418;50.070;8.436;2023-01-15T02:09:32;98498.59;;;8.03;100.00
40730;BME280;26418;50.070;8.436;2023-01-15T02:12:08;98495.91;;;8.03;100.00
40730;BME280;26418;50.070;8.436;2023-01-15T02:17:21;98506.06;;;8.06;100.00
40730;BME280;26418;50.070;8.436;2023-01-15T02:27:46;98517.75;;;8.10;100.00
40730;BME280;26418;50.070;8.436;2023-01-15T02:30:27;98524.44;;;8.13;100.00
40730;BME280;26418;50.070;8.436;2023-01-15T02:32:58;98509.53;;;8.07;100.00
40730;BME280;26418;50.070;8.436;2023-01-15T02:38:10;98517.00;;;8.01;100.00
40730;BME280;26418;50.070;8.436;2023-01-15T02:40:38;98518.09;;;8.00;100.00
40730;BME280;26418;50.070;8.436;2023-01-15T02:43:06;98521.75;;;7.95;99.51
40730;BME280;26418;50.070;8.436;2023-01-15T02:45:35;98532.81;;;7.94;100.00
40730;BME280;26418;50.070;8.436;2023-01-15T02:48:08;98534.72;;;7.84;97.21
40730;BME280;26418;50.070;8.436;2023-01-15T02:50:37;98538.50;;;7.75;97.01
40730;BME280;26418;50.070;8.436;2023-01-15T02:53:08;98542.31;;;7.65;95.87
40730;BME280;26418;50.070;8.436;2023-01-15T02:55:41;98544.34;;;7.59;96.27
40730;BME280;26418;50.070;8.436;2023-01-15T02:58:11;98543.09;;;7.57;94.09
40730;BME280;26418;50.070;8.436;2023-01-15T03:00:43;98545.13;;;7.51;94.90
40730;BME280;26418;50.070;8.436;2023-01-15T03:03:20;98554.63;;;7.48;94.77
40730;BME280;26418;50.070;8.436;2023-01-15T03:06:07;98556.50;;;7.39;94.35
40730;BME280;26418;50.070;8.436;2023-01-15T03:08:34;98550.78;;;7.32;94.01
40730;BME280;26418;50.070;8.436;2023-01-15T03:11:08;98554.41;;;7.27;94.71
40730;BME280;26418;50.070;8.436;2023-01-15T03:13:50;98548.47;;;7.07;96.14
40730;BME280;26418;50.070;8.436;2023-01-15T03:22:17;98551.94;;;6.99;97.08
40730;BME280;26418;50.070;8.436;2023-01-15T03:24:52;98561.25;;;7.02;97.39
40730;BME280;26418;50.070;8.436;2023-01-15T03:27:19;98563.31;;;6.96;97.73
40730;BME280;26418;50.070;8.436;2023-01-15T03:29:49;98561.56;;;6.91;98.21
40730;BME280;26418;50.070;8.436;2023-01-15T03:32:17;98562.81;;;6.94;98.98
40730;BME280;26418;50.070;8.436;2023-01-15T03:34:50;98559.78;;;6.87;98.95
40730;BME280;26418;50.070;8.436;2023-01-15T03:37:17;98576.22;;;6.85;97.91
40730;BME280;26418;50.070;8.436;2023-01-15T03:39:43;98568.91;;;6.77;97.11
40730;BME280;26418;50.070;8.436;2023-01-15T03:47:53;98572.41;;;6.55;94.21
40730;BME280;26418;50.070;8.436;2023-01-15T03:50:26;98587.56;;;6.51;92.40
40730;BME280;26418;50.070;8.436;2023-01-15T03:53:14;98596.34;;;6.42;92.92
40730;BME280;26418;50.070;8.436;2023-01-15T03:58:37;98584.19;;;6.22;91.95
40730;BME280;26418;50.070;8.436;2023-01-15T04:01:09;98582.56;;;6.12;93.51
40730;BME280;26418;50.070;8.436;2023-01-15T04:03:36;98590.72;;;6.07;93.75
40730;BME280;26418;50.070;8.436;2023-01-15T04:06:02;98602.97;;;6.00;93.49
40730;BME280;26418;50.070;8.436;2023-01-15T04:08:32;98601.44;;;5.93;93.45
40730;BME280;26418;50.070;8.436;2023-01-15T04:11:00;98619.63;;;5.96;92.49
40730;BME280;26418;50.070;8.436;2023-01-15T04:13:27;98604.56;;;5.87;92.95
40730;BME280;26418;50.070;8.436;2023-01-15T04:15:53;98608.13;;;5.82;93.28
40730;BME280;26418;50.070;8.436;2023-01-15T04:18:19;98614.69;;;5.76;93.59
40730;BME280;26418;50.070;8.436;2023-01-15T04:20:45;98619.09;;;5.72;93.74
40730;BME280;26418;50.070;8.436;2023-01-15T04:23:11;98628.72;;;5.59;94.73
40730;BME280;26418;50.070;8.436;2023-01-15T04:25:37;98636.66;;;5.64;95.57
40730;BME280;26418;50.070;8.436;2023-01-15T04:28:06;98633.78;;;5.60;94.05
40730;BME280;26418;50.070;8.436;2023-01-15T04:30:32;98643.53;;;5.56;95.03
40730;BME280;26418;50.070;8.436;2023-01-15T04:32:58;98640.34;;;5.54;95.74
40730;BME280;26418;50.070;8.436;2023-01-15T04:35:24;98654.66;;;5.49;96.21
40730;BME280;26418;50.070;8.436;2023-01-15T04:37:56;98653.25;;;5.52;96.05
40730;BME280;26418;50.070;8.436;2023-01-15T04:40:22;98641.34;;;5.44;96.30
40730;BME280;26418;50.070;8.436;2023-01-15T04:43:09;98633.97;;;5.50;94.97
40730;BME280;26418;50.070;8.436;2023-01-15T04:45:53;98642.94;;;5.45;94.33
40730;BME280;26418;50.070;8.436;2023-01-15T04:48:19;98637.28;;;5.47;94.00
40730;BME280;26418;50.070;8.436;2023-01-15T04:50:44;98642.63;;;5.47;92.48
40730;BME280;26418;50.070;8.436;2023-01-15T04:53:10;98665.56;;;5.39;93.75
40730;BME280;26418;50.070;8.436;2023-01-15T04:55:36;98670.13;;;5.39;93.60
40730;BME280;26418;50.070;8.436;2023-01-15T04:58:01;98662.47;;;5.32;93.25
40730;BME280;26418;50.070;8.436;2023-01-15T05:00:27;98659.22;;;5.35;93.57
40730;BME280;26418;50.070;8.436;2023-01-15T05:02:53;98670.13;;;5.39;91.42
40730;BME280;26418;50.070;8.436;2023-01-15T05:05:18;98666.44;;;5.34;91.42
40730;BME280;26418;50.070;8.436;2023-01-15T05:07:44;98650.56;;;5.24;91.39
40730;BME280;26418;50.070;8.436;2023-01-15T05:10:09;98641.22;;;5.22;92.05
40730;BME280;26418;50.070;8.436;2023-01-15T05:12:35;98662.97;;;5.20;91.11
40730;BME280;26418;50.070;8.436;2023-01-15T05:15:00;98670.00;;;5.16;90.71
40730;BME280;26418;50.070;8.436;2023-01-15T05:17:26;98657.50;;;5.11;90.28
40730;BME280;26418;50.070;8.436;2023-01-15T05:19:51;98660.44;;;5.10;90.55
40730;BME280;26418;50.070;8.436;2023-01-15T05:22:17;98670.47;;;5.04;91.72
40730;BME280;26418;50.070;8.436;2023-01-15T05:24:43;98681.19;;;5.04;91.97
40730;BME280;26418;50.070;8.436;2023-01-15T05:27:08;98671.94;;;4.96;90.95
40730;BME280;26418;50.070;8.436;2023-01-15T05:29:34;98678.59;;;4.99;91.12
40730;BME280;26418;50.070;8.436;2023-01-15T05:32:00;98697.94;;;4.96;91.15
40730;BME280;26418;50.070;8.436;2023-01-15T05:34:25;98703.06;;;4.92;92.19
40730;BME280;26418;50.070;8.436;2023-01-15T05:36:51;98717.13;;;4.84;92.31
40730;BME280;26418;50.070;8.436;2023-01-15T05:39:17;98711.34;;;4.77;92.33
40730;BME280;26418;50.070;8.436;2023-01-15T05:41:42;98711.34;;;4.77;92.68
40730;BME280;26418;50.070;8.436;2023-01-15T05:44:16;98708.69;;;4.77;93.38
40730;BME280;26418;50.070;8.436;2023-01-15T05:46:44;98716.72;;;4.77;93.51
40730;BME280;26418;50.070;8.436;2023-01-15T05:49:12;98720.06;;;4.68;94.14
40730;BME280;26418;50.070;8.436;2023-01-15T05:51:39;98725.75;;;4.62;94.99
40730;BME280;26418;50.070;8.436;2023-01-15T05:54:08;98731.94;;;4.62;94.73
40730;BME280;26418;50.070;8.436;2023-01-15T05:56:35;98729.16;;;4.67;93.42
40730;BME280;26418;50.070;8.436;2023-01-15T05:59:01;98738.53;;;4.70;93.73
40730;BME280;26418;50.070;8.436;2023-01-15T06:01:27;98726.69;;;4.71;94.11
40730;BME280;26418;50.070;8.436;2023-01-15T06:03:52;98721.34;;;4.71;94.92
40730;BME280;26418;50.070;8.436;2023-01-15T06:06:20;98728.09;;;4.68;95.43
40730;BME280;26418;50.070;8.436;2023-01-15T06:08:45;98726.00;;;4.65;96.14
40730;BME280;26418;50.070;8.436;2023-01-15T06:11:11;98726.78;;;4.66;95.88
40730;BME280;26418;50.070;8.436;2023-01-15T06:13:38;98718.47;;;4.67;96.00
40730;BME280;26418;50.070;8.436;2023-01-15T06:16:05;98717.38;;;4.68;96.39
40730;BME280;26418;50.070;8.436;2023-01-15T06:18:30;98720.13;;;4.63;96.85
40730;BME280;26418;50.070;8.436;2023-01-15T06:21:05;98723.59;;;4.64;96.83
40730;BME280;26418;50.070;8.436;2023-01-15T06:23:31;98717.03;;;4.56;97.31
40730;BME280;26418;50.070;8.436;2023-01-15T06:26:00;98722.75;;;4.49;97.97
40730;BME280;26418;50.070;8.436;2023-01-15T06:28:27;98732.38;;;4.50;99.04
40730;BME280;26418;50.070;8.436;2023-01-15T06:30:53;98737.22;;;4.48;99.38
40730;BME280;26418;50.070;8.436;2023-01-15T06:33:18;98714.50;;;4.46;99.71
40730;BME280;26418;50.070;8.436;2023-01-15T06:35:44;98736.44;;;4.48;99.51
40730;BME280;26418;50.070;8.436;2023-01-15T06:38:09;98735.91;;;4.46;100.00
40730;BME280;26418;50.070;8.436;2023-01-15T06:40:35;98747.34;;;4.51;99.91
40730;BME280;26418;50.070;8.436;2023-01-15T06:43:01;98749.00;;;4.47;99.30
40730;BME280;26418;50.070;8.436;2023-01-15T06:45:45;98749.00;;;4.47;99.53
40730;BME280;26418;50.070;8.436;2023-01-15T06:48:29;98746.09;;;4.44;99.80
40730;BME280;26418;50.070;8.436;2023-01-15T06:50:55;98766.38;;;4.50;99.86
40730;BME280;26418;50.070;8.436;2023-01-15T06:53:20;98745.53;;;4.47;99.97
40730;BME280;26418;50.070;8.436;2023-01-15T06:55:46;98754.09;;;4.49;100.00
40730;BME280;26418;50.070;8.436;2023-01-15T06:58:12;98749.22;;;4.51;100.00
40730;BME280;26418;50.070;8.436;2023-01-15T07:00:38;98765.00;;;4.52;100.00
40730;BME280;26418;50.070;8.436;2023-01-15T07:03:07;98773.75;;;4.58;100.00
40730;BME280;26418;50.070;8.436;2023-01-15T07:05:33;98763.03;;;4.58;100.00
40730;BME280;26418;50.070;8.436;2023-01-15T07:07:58;98757.41;;;4.60;100.00
40730;BME280;26418;50.070;8.436;2023-01-15T07:10:24;98767.81;;;4.61;100.00
40730;BME280;26418;50.070;8.436;2023-01-15T07:12:51;98779.84;;;4.64;100.00
40730;BME280;26418;50.070;8.436;2023-01-15T07:15:16;98780.34;;;4.66;100.00
40730;BME280;26418;50.070;8.436;2023-01-15T07:17:42;98780.34;;;4.66;100.00
40730;BME280;26418;50.070;8.436;2023-01-15T07:20:08;98782.47;;;4.69;100.00
40730;BME280;26418;50.070;8.436;2023-01-15T07:22:34;98786.75;;;4.70;100.00
40730;BME280;26418;50.070;8.436;2023-01-15T07:24:59;98788.59;;;4.69;100.00
40730;BME280;26418;50.070;8.436;2023-01-15T07:27:26;98789.63;;;4.74;100.00
40730;BME280;26418;50.070;8.436;2023-01-15T07:29:52;98781.66;;;4.68;100.00
40730;BME280;26418;50.070;8.436;2023-01-15T07:32:18;98795.56;;;4.70;100.00
40730;BME280;26418;50.070;8.436;2023-01-15T07:34:44;98805.41;;;4.75;100.00
40730;BME280;26418;50.070;8.436;2023-01-15T07:37:09;98808.88;;;4.76;100.00
40730;BME280;26418;50.070;8.436;2023-01-15T07:39:35;98800.41;;;4.68;100.00
40730;BME280;26418;50.070;8.436;2023-01-15T07:42:00;98809.94;;;4.75;100.00
40730;BME280;26418;50.070;8.436;2023-01-15T07:44:44;98814.53;;;4.74;100.00
40730;BME280;26418;50.070;8.436;2023-01-15T07:47:29;98808.72;;;4.67;100.00
40730;BME280;26418;50.070;8.436;2023-01-15T07:50:19;98812.13;;;4.72;100.00
40730;BME280;26418;50.070;8.436;2023-01-15T07:52:45;98819.59;;;4.76;100.00
40730;BME280;26418;50.070;8.436;2023-01-15T07:55:12;98814.53;;;4.74;100.00
40730;BME280;26418;50.070;8.436;2023-01-15T07:57:38;98826.28;;;4.78;100.00
40730;BME280;26418;50.070;8.436;2023-01-15T08:00:08;98829.72;;;4.79;100.00
40730;BME280;26418;50.070;8.436;2023-01-15T08:02:34;98834.00;;;4.80;100.00
40730;BME280;26418;50.070;8.436;2023-01-15T08:04:59;98839.06;;;4.81;100.00
40730;BME280;26418;50.070;8.436;2023-01-15T08:07:25;98835.38;;;4.77;100.00
40730;BME280;26418;50.070;8.436;2023-01-15T08:09:51;98842.59;;;4.77;100.00
40730;BME280;26418;50.070;8.436;2023-01-15T08:12:16;98850.06;;;4.80;100.00
40730;BME280;26418;50.070;8.436;2023-01-15T08:15:00;98850.84;;;4.80;100.00
40730;BME280;26418;50.070;8.436;2023-01-15T08:17:45;98854.06;;;4.82;100.00
40730;BME280;26418;50.070;8.436;2023-01-15T08:20:20;98852.16;;;4.83;100.00
40730;BME280;26418;50.070;8.436;2023-01-15T08:22:46;98859.50;;;4.96;100.00
40730;BME280;26418;50.070;8.436;2023-01-15T08:25:14;98853.91;;;5.31;100.00
40730;BME280;26418;50.070;8.436;2023-01-15T08:27:40;98857.13;;;5.66;100.00
40730;BME280;26418;50.070;8.436;2023-01-15T08:30:10;98852.09;;;5.92;100.00
40730;BME280;26418;50.070;8.436;2023-01-15T08:32:36;98850.19;;;6.12;100.00
40730;BME280;26418;50.070;8.436;2023-01-15T08:35:01;98845.59;;;6.26;100.00
40730;BME280;26418;50.070;8.436;2023-01-15T08:37:27;98852.88;;;6.40;100.00
40730;BME280;26418;50.070;8.436;2023-01-15T08:39:53;98852.69;;;6.50;100.00
40730;BME280;26418;50.070;8.436;2023-01-15T08:42:19;98856.03;;;6.56;100.00
40730;BME280;26418;50.070;8.436;2023-01-15T08:44:46;98866.41;;;6.63;100.00
40730;BME280;26418;50.070;8.436;2023-01-15T08:47:12;98870.47;;;6.60;96.08
40730;BME280;26418;50.070;8.436;2023-01-15T08:49:37;98878.84;;;6.58;95.29
40730;BME280;26418;50.070;8.436;2023-01-15T08:52:03;98876.94;;;6.45;93.04
40730;BME280;26418;50.070;8.436;2023-01-15T08:54:29;98885.88;;;6.26;93.08
40730;BME280;26418;50.070;8.436;2023-01-15T08:56:55;98882.50;;;6.07;92.97
40730;BME280;26418;50.070;8.436;2023-01-15T08:59:20;98877.44;;;5.86;92.87
40730;BME280;26418;50.070;8.436;2023-01-15T09:01:46;98876.69;;;5.66;93.59
40730;BME280;26418;50.070;8.436;2023-01-15T09:04:16;98884.41;;;5.54;94.63
40730;BME280;26418;50.070;8.436;2023-01-15T09:06:42;98892.03;;;5.47;95.08
40730;BME280;26418;50.070;8.436;2023-01-15T09:09:08;98906.13;;;5.33;95.02
40730;BME280;26418;50.070;8.436;2023-01-15T09:11:33;98908.69;;;5.25;95.40
40730;BME280;26418;50.070;8.436;2023-01-15T09:13:59;98909.56;;;5.20;95.62
40730;BME280;26418;50.070;8.436;2023-01-15T09:16:25;98912.53;;;5.18;96.17
40730;BME280;26418;50.070;8.436;2023-01-15T09:18:56;98906.16;;;5.14;96.66
40730;BME280;26418;50.070;8.436;2023-01-15T09:21:21;98903.47;;;5.14;97.41
40730;BME280;26418;50.070;8.436;2023-01-15T09:23:47;98916.81;;;5.19;98.04
40730;BME280;26418;50.070;8.436;2023-01-15T09:26:48;98915.22;;;5.18;97.06
40730;BME280;26418;50.070;8.436;2023-01-15T09:29:17;98915.47;;;5.17;97.32
40730;BME280;26418;50.070;8.436;2023-01-15T09:31:42;98923.53;;;5.17;97.60
40730;BME280;26418;50.070;8.436;2023-01-15T09:34:08;98925.13;;;5.18;98.00
40730;BME280;26418;50.070;8.436;2023-01-15T09:36:35;98929.69;;;5.17;97.79
40730;BME280;26418;50.070;8.436;2023-01-15T09:39:02;98942.25;;;5.22;98.02
40730;BME280;26418;50.070;8.436;2023-01-15T09:42:02;98951.59;;;5.25;98.24
40730;BME280;26418;50.070;8.436;2023-01-15T09:47:31;98957.72;;;5.25;96.88
40730;BME280;26418;50.070;8.436;2023-01-15T09:50:33;98962.88;;;5.22;96.93
40730;BME280;26418;50.070;8.436;2023-01-15T09:55:33;98961.94;;;5.50;98.42
40730;BME280;26418;50.070;8.436;2023-01-15T09:58:02;98961.50;;;5.62;97.76
40730;BME280;26418;50.070;8.436;2023-01-15T10:00:38;98949.13;;;5.66;95.12
40730;BME280;26418;50.070;8.436;2023-01-15T10:03:12;98955.63;;;5.79;95.06
40730;BME280;26418;50.070;8.436;2023-01-15T10:05:49;98955.84;;;5.83;94.06
40730;BME280;26418;50.070;8.436;2023-01-15T10:08:31;98952.94;;;5.79;92.73
40730;BME280;26418;50.070;8.436;2023-01-15T10:11:03;98963.03;;;5.69;90.94
40730;BME280;26418;50.070;8.436;2023-01-15T10:16:07;98970.22;;;5.54;92.01
40730;BME280;26418;50.070;8.436;2023-01-15T10:18:35;98971.81;;;5.55;92.02
40730;BME280;26418;50.070;8.436;2023-01-15T10:21:11;98958.19;;;5.51;91.86
40730;BME280;26418;50.070;8.436;2023-01-15T10:24:04;98967.41;;;5.45;91.18
40730;BME280;26418;50.070;8.436;2023-01-15T10:26:34;98961.78;;;5.42;90.71
40730;BME280;26418;50.070;8.436;2023-01-15T10:29:11;98962.09;;;5.40;90.95
40730;BME280;26418;50.070;8.436;2023-01-15T10:37:53;98961.56;;;5.38;89.00
40730;BME280;26418;50.070;8.436;2023-01-15T10:43:38;98964.41;;;5.28;87.47
40730;BME280;26418;50.070;8.436;2023-01-15T10:46:46;98951.66;;;5.19;87.84
40730;BME280;26418;50.070;8.436;2023-01-15T10:49:13;98941.50;;;5.16;87.90
40730;BME280;26418;50.070;8.436;2023-01-15T10:51:43;98934.84;;;5.14;87.83
40730;BME280;26418;50.070;8.436;2023-01-15T10:54:32;98936.16;;;5.16;88.13
40730;BME280;26418;50.070;8.436;2023-01-15T10:57:08;98953.47;;;5.24;88.83
40730;BME280;26418;50.070;8.436;2023-01-15T11:04:46;98962.53;;;5.28;85.43
40730;BME280;26418;50.070;8.436;2023-01-15T11:07:11;98968.41;;;5.30;85.65
40730;BME280;26418;50.070;8.436;2023-01-15T11:09:40;98959.28;;;5.31;85.35
40730;BME280;26418;50.070;8.436;2023-01-15T11:12:19;98962.69;;;5.37;84.84
40730;BME280;26418;50.070;8.436;2023-01-15T11:14:48;98959.50;;;5.35;84.34
40730;BME280;26418;50.070;8.436;2023-01-15T11:17:40;98974.28;;;5.32;83.53
40730;BME280;26418;50.070;8.436;2023-01-15T11:20:34;98975.56;;;5.35;83.93
40730;BME280;26418;50.070;8.436;2023-01-15T11:23:09;98980.34;;;5.38;83.57
40730;BME280;26418;50.070;8.436;2023-01-15T11:25:37;98986.44;;;5.44;83.30
40730;BME280;26418;50.070;8.436;2023-01-15T11:28:09;98995.00;;;5.46;83.18
40730;BME280;26418;50.070;8.436;2023-01-15T11:30:40;98997.59;;;5.51;82.76
40730;BME280;26418;50.070;8.436;2023-01-15T11:33:23;98991.47;;;5.50;83.03
40730;BME280;26418;50.070;8.436;2023-01-15T11:35:51;98995.44;;;5.53;82.78
40730;BME280;26418;50.070;8.436;2023-01-15T11:38:23;99011.44;;;5.58;82.82
40730;BME280;26418;50.070;8.436;2023-01-15T11:40:54;99007.47;;;5.56;81.40
40730;BME280;26418;50.070;8.436;2023-01-15T11:43:22;99007.47;;;5.56;81.78
40730;BME280;26418;50.070;8.436;2023-01-15T11:49:09;99005.47;;;5.66;82.30
40730;BME280;26418;50.070;8.436;2023-01-15T11:51:55;99005.94;;;5.49;80.86
40730;BME280;26418;50.070;8.436;2023-01-15T11:54:23;99000.81;;;5.53;81.42
40730;BME280;26418;50.070;8.436;2023-01-15T11:56:50;99005.22;;;5.63;82.46
40730;BME280;26418;50.070;8.436;2023-01-15T11:59:17;98995.53;;;5.67;80.81
40730;BME280;26418;50.070;8.436;2023-01-15T12:02:01;98981.66;;;5.79;81.43
40730;BME280;26418;50.070;8.436;2023-01-15T12:04:33;98971.00;;;5.93;80.22
40730;BME280;26418;50.070;8.436;2023-01-15T12:07:02;98971.13;;;6.02;80.20
40730;BME280;26418;50.070;8.436;2023-01-15T12:09:41;98973.75;;;6.07;78.50
40730;BME280;26418;50.070;8.436;2023-01-15T12:12:43;98967.31;;;6.22;79.55
40730;BME280;26418;50.070;8.436;2023-01-15T12:16:04;98953.91;;;6.36;78.63
40730;BME280;26418;50.070;8.436;2023-01-15T12:21:10;98958.94;;;6.56;75.71
40730;BME280;26418;50.070;8.436;2023-01-15T12:26:29;98951.97;;;6.55;75.49
40730;BME280;26418;50.070;8.436;2023-01-15T12:29:01;98942.81;;;6.56;75.66
40730;BME280;26418;50.070;8.436;2023-01-15T12:31:36;98943.53;;;6.62;75.91
40730;BME280;26418;50.070;8.436;2023-01-15T12:34:11;98938.63;;;6.64;75.34
40730;BME280;26418;50.070;8.436;2023-01-15T12:36:45;98944.13;;;6.73;75.25
40730;BME280;26418;50.070;8.436;2023-01-15T12:39:20;98940.13;;;6.70;72.21
40730;BME280;26418;50.070;8.436;2023-01-15T12:41:52;98936.56;;;6.75;71.70
40730;BME280;26418;50.070;8.436;2023-01-15T12:44:46;98942.31;;;6.68;71.59
40730;BME280;26418;50.070;8.436;2023-01-15T12:52:40;98925.66;;;6.38;72.73
40730;BME280;26418;50.070;8.436;2023-01-15T12:55:23;98928.78;;;6.45;73.27
40730;BME280;26418;50.070;8.436;2023-01-15T12:57:55;98929.78;;;6.64;73.68
40730;BME280;26418;50.070;8.436;2023-01-15T13:00:42;98916.84;;;6.80;74.59
40730;BME280;26418;50.070;8.436;2023-01-15T13:05:57;98938.13;;;6.90;70.34
40730;BME280;26418;50.070;8.436;2023-01-15T13:08:37;98930.19;;;6.85;70.59
40730;BME280;26418;50.070;8.436;2023-01-15T13:11:05;98932.34;;;6.83;70.63
40730;BME280;26418;50.070;8.436;2023-01-15T13:13:37;98947.00;;;6.76;70.16
40730;BME280;26418;50.070;8.436;2023-01-15T13:16:17;98946.69;;;6.64;69.68
40730;BME280;26418;50.070;8.436;2023-01-15T13:18:55;98951.59;;;6.62;70.53
40730;BME280;26418;50.070;8.436;2023-01-15T13:21:28;98947.19;;;6.66;70.75
40730;BME280;26418;50.070;8.436;2023-01-15T13:32:10;98939.13;;;6.66;68.53
40730;BME280;26418;50.070;8.436;2023-01-15T13:34:50;98955.75;;;6.68;68.96
40730;BME280;26418;50.070;8.436;2023-01-15T13:39:46;98959.22;;;6.55;67.89
40730;BME280;26418;50.070;8.436;2023-01-15T13:42:25;98959.00;;;6.51;68.70
40730;BME280;26418;50.070;8.436;2023-01-15T13:45:04;98960.91;;;6.51;68.05
40730;BME280;26418;50.070;8.436;2023-01-15T13:47:34;98973.06;;;6.48;67.00
40730;BME280;26418;50.070;8.436;2023-01-15T13:50:05;98962.09;;;6.44;68.11
40730;BME280;26418;50.070;8.436;2023-01-15T13:52:37;98961.63;;;6.56;68.81
40730;BME280;26418;50.070;8.436;2023-01-15T13:55:29;98957.44;;;6.64;69.21
40730;BME280;26418;50.070;8.436;2023-01-15T13:57:56;98943.91;;;6.69;68.43
40730;BME280;26418;50.070;8.436;2023-01-15T14:00:26;98957.63;;;6.82;67.01
40730;BME280;26418;50.070;8.436;2023-01-15T14:02:54;98956.25;;;6.84;66.36
40730;BME280;26418;50.070;8.436;2023-01-15T14:05:32;98948.88;;;6.90;66.48
40730;BME280;26418;50.070;8.436;2023-01-15T14:07:59;98959.81;;;6.93;67.22
40730;BME280;26418;50.070;8.436;2023-01-15T14:13:14;98949.56;;;7.10;66.89
40730;BME280;26418;50.070;8.436;2023-01-15T14:15:57;98953.34;;;7.08;67.11
40730;BME280;26418;50.070;8.436;2023-01-15T14:18:53;98965.50;;;7.06;67.68
40730;BME280;26418;50.070;8.436;2023-01-15T14:35:12;99000.25;;;7.16;66.40
40730;BME280;26418;50.070;8.436;2023-01-15T14:37:56;99002.06;;;7.07;66.63
40730;BME280;26418;50.070;8.436;2023-01-15T14:40:33;99008.50;;;6.92;66.84
40730;BME280;26418;50.070;8.436;2023-01-15T14:43:16;99002.16;;;6.88;67.33
40730;BME280;26418;50.070;8.436;2023-01-15T14:45:45;99011.59;;;6.85;66.85
40730;BME280;26418;50.070;8.436;2023-01-15T14:50:53;99019.84;;;6.89;66.30
40730;BME280;26418;50.070;8.436;2023-01-15T14:56:31;99022.75;;;6.79;66.42
40730;BME280;26418;50.070;8.436;2023-01-15T14:59:03;99026.53;;;6.78;67.01
40730;BME280;26418;50.070;8.436;2023-01-15T15:01:49;99022.56;;;6.75;67.15
40730;BME280;26418;50.070;8.436;2023-01-15T15:07:12;99027.50;;;6.68;68.18
40730;BME280;26418;50.070;8.436;2023-01-15T15:17:37;99033.34;;;6.56;70.03
40730;BME280;26418;50.070;8.436;2023-01-15T15:22:45;99041.66;;;6.40;70.62